Time;durP1;ratioP1;P1;durP2;ratioP2;P2;SDS_P1;SDS_P2;PMS_P1;PMS_P2;Temp;Humidity;BMP_temperature;BMP_pressure;BME280_temperature;BME280_humidity;BME280_pressure;Samples;Min_cycle;Max_cycle;Signal;HPM_P1;HPM_P2
2022/11/25 00:00:49;;;;;;;;;;;;;;;;;;5033918;28;1973;-77
2022/11/25 00:03:15;;;;;;;;;;;;;;;;;;5053571;28;1211;-77
2022/11/25 00:05:43;;;;;;;;;;;;;;;;;;5055746;28;1071;-77
2022/11/25 00:08:09;;;;;;;;;;;;;;;;;;5057971;28;1317;-77
2022/11/25 00:10:35;;;;;;;;;;;;;;;;;;5075535;28;861;-78
2022/11/25 00:13:02;;;;;;;;;;;;;;;;;;5074886;28;766;-78
2022/11/25 00:15:28;;;;;;;;;;;;;;;;;;5075425;28;1070;-77
2022/11/25 00:17:55;;;;;;;;;;;;;;;;;;5075390;28;1375;-77
2022/11/25 00:20:21;;;;;;;;;;;;;;;;;;5075181;28;1910;-77
2022/11/25 00:22:48;;;;;;;;;;;;;;;;;;5074451;28;1052;-77
2022/11/25 00:25:15;;;;;;;;;;;;;;;;;;5075219;28;833;-78
2022/11/25 00:27:41;;;;;;;;;;;;;;;;;;5075132;28;913;-77
2022/11/25 00:30:08;;;;;;;;;;;;;;;;;;5074857;28;1282;-77
2022/11/25 00:32:34;;;;;;;;;;;;;;;;;;5074469;28;865;-77
2022/11/25 00:35:00;;;;;;;;;;;;;;;;;;5090893;28;1617;-78
2022/11/25 00:37:27;;;;;;;;;;;;;;;;;;5077086;28;1207;-77
2022/11/25 00:39:54;;;;;;;;;;;;;;;;;;5077442;28;1906;-77
2022/11/25 00:45:05;;;;;;;;;;;;;;;;;;5076977;28;1204;-77
2022/11/25 00:47:31;;;;;;;;;;;;;;;;;;5095159;28;1298;-76
2022/11/25 00:49:57;;;;;;;;;;;;;;;;;;5077004;28;1442;-77
2022/11/25 00:52:24;;;;;;;;;;;;;;;;;;5076294;28;1259;-77
2022/11/25 00:54:51;;;;;;;;;;;;;;;;;;5076948;28;1310;-77
2022/11/25 00:57:19;;;;;;;;;;;;;;;;;;5076648;28;1219;-78
2022/11/25 00:59:45;;;;;;;;;;;;;;;;;;5088035;28;1901;-77
2022/11/25 01:02:11;;;;;;;;;;;;;;;;;;5094343;28;901;-77
2022/11/25 01:04:38;;;;;;;;;;;;;;;;;;5094017;28;1211;-78
2022/11/25 01:07:04;;;;;;;;;;;;;;;;;;5094019;28;1238;-77
2022/11/25 01:09:30;;;;;;;;;;;;;;;;;;5093735;28;1349;-78
2022/11/25 01:11:57;;;;;;;;;;;;;;;;;;5092648;28;1262;-77
2022/11/25 01:14:24;;;;;;;;;;;;;;;;;;5093057;28;1221;-77
2022/11/25 01:16:50;;;;;;;;;;;;;;;;;;5104143;28;1329;-75
2022/11/25 01:19:17;;;;;;;;;;;;;;;;;;5107446;28;1266;-78
2022/11/25 01:21:43;;;;;;;;;;;;;;;;;;5091778;28;1890;-78
2022/11/25 01:24:11;;;;;;;;;;;;;;;;;;5089088;28;1306;-78
2022/11/25 01:26:38;;;;;;;;;;;;;;;;;;5088181;28;1206;-78
2022/11/25 01:29:05;;;;;;;;;;;;;;;;;;5091123;28;1277;-78
2022/11/25 01:31:35;;;;;;;;;;;;;;;;;;5092214;28;879;-78
2022/11/25 01:34:01;;;;;;;;;;;;;;;;;;5093723;28;905;-78
2022/11/25 01:36:28;;;;;;;;;;;;;;;;;;5092588;28;960;-78
2022/11/25 01:38:55;;;;;;;;;;;;;;;;;;5092831;28;1379;-77
2022/11/25 01:41:22;;;;;;;;;;;;;;;;;;5089749;28;1969;-77
2022/11/25 01:44:08;;;;;;;;;;;;;;;;;;5087722;28;841;-77
2022/11/25 01:46:49;;;;;;;;;;;;;;;;;;5090668;28;1051;-77
2022/11/25 01:49:17;;;;;;;;;;;;;;;;;;5086329;28;1356;-77
2022/11/25 01:51:46;;;;;;;;;;;;;;;;;;5087096;28;1110;-77
2022/11/25 01:54:13;;;;;;;;;;;;;;;;;;5087866;28;1269;-77
2022/11/25 01:56:39;;;;;;;;;;;;;;;;;;5089215;28;1084;-77
2022/11/25 01:59:05;;;;;;;;;;;;;;;;;;5087092;28;1351;-77
2022/11/25 02:01:35;;;;;;;;;;;;;;;;;;5087713;28;1914;-77
2022/11/25 02:04:01;;;;;;;;;;;;;;;;;;5087450;28;1181;-77
2022/11/25 02:06:29;;;;;;;;;;;;;;;;;;5088050;28;1036;-77
2022/11/25 02:08:56;;;;;;;;;;;;;;;;;;5090640;28;1432;-78
2022/11/25 02:11:22;;;;;;;;;;;;;;;;;;5098415;28;825;-77
2022/11/25 02:13:49;;;;;;;;;;;;;;;;;;5112590;28;1088;-77
2022/11/25 02:16:15;;;;;;;;;;;;;;;;;;5103884;28;1190;-77
2022/11/25 02:18:41;;;;;;;;;;;;;;;;;;5087006;28;1597;-77
2022/11/25 02:21:08;;;;;;;;;;;;;;;;;;5087652;28;2139;-78
2022/11/25 02:23:37;;;;;;;;;;;;;;;;;;5087084;28;1275;-78
2022/11/25 02:26:05;;;;;;;;;;;;;;;;;;5106967;28;1229;-77
2022/11/25 02:28:31;;;;;;;;;;;;;;;;;;5090856;28;1671;-77
2022/11/25 02:30:58;;;;;;;;;;;;;;;;;;5090095;28;1158;-77
2022/11/25 02:33:24;;;;;;;;;;;;;;;;;;5088465;28;1305;-77
2022/11/25 02:35:52;;;;;;;;;;;;;;;;;;5088899;28;969;-77
2022/11/25 02:38:19;;;;;;;;;;;;;;;;;;5090513;28;1309;-78
2022/11/25 02:40:46;;;;;;;;;;;;;;;;;;5088643;28;1969;-77
2022/11/25 02:43:14;;;;;;;;;;;;;;;;;;5089695;28;1512;-78
2022/11/25 02:45:42;;;;;;;;;;;;;;;;;;5090568;28;1222;-77
2022/11/25 02:48:08;;;;;;;;;;;;;;;;;;5091353;28;1328;-77
2022/11/25 02:50:35;;;;;;;;;;;;;;;;;;5088577;28;1289;-76
2022/11/25 02:53:01;;;;;;;;;;;;;;;;;;5088320;28;1020;-77
2022/11/25 02:55:27;;;;;;;;;;;;;;;;;;5088898;28;1035;-77
2022/11/25 02:57:54;;;;;;;;;;;;;;;;;;5090338;28;1369;-77
2022/11/25 03:00:21;;;;;;;;;;;;;;;;;;5088753;28;1910;-77
2022/11/25 03:02:48;;;;;;;;;;;;;;;;;;5089520;28;1194;-77
2022/11/25 03:05:14;;;;;;;;;;;;;;;;;;5091467;28;1027;-77
2022/11/25 03:07:40;;;;;;;;;;;;;;;;;;5090360;28;1198;-77
2022/11/25 03:10:07;;;;;;;;;;;;;;;;;;5090125;28;1418;-77
2022/11/25 03:12:34;;;;;;;;;;;;;;;;;;5090673;28;849;-77
2022/11/25 03:15:01;;;;;;;;;;;;;;;;;;5089391;28;1295;-77
2022/11/25 03:17:29;;;;;;;;;;;;;;;;;;5089234;28;1226;-77
2022/11/25 03:19:55;;;;;;;;;;;;;;;;;;5086459;28;1340;-77
2022/11/25 03:22:21;;;;;;;;;;;;;;;;;;5086843;28;1910;-77
2022/11/25 03:24:48;;;;;;;;;;;;;;;;;;5087217;28;1472;-77
2022/11/25 03:27:14;;;;;;;;;;;;;;;;;;5086008;28;1107;-78
2022/11/25 03:29:41;;;;;;;;;;;;;;;;;;5087396;28;1558;-77
2022/11/25 03:32:07;;;;;;;;;;;;;;;;;;5087351;28;1214;-77
2022/11/25 03:34:35;;;;;;;;;;;;;;;;;;5087367;28;1332;-77
2022/11/25 03:37:02;;;;;;;;;;;;;;;;;;5086707;28;1189;-77
2022/11/25 03:39:31;;;;;;;;;;;;;;;;;;5089836;28;1307;-77
2022/11/25 03:41:57;;;;;;;;;;;;;;;;;;5089485;28;1914;-77
2022/11/25 03:44:23;;;;;;;;;;;;;;;;;;5089198;28;1028;-77
2022/11/25 03:46:51;;;;;;;;;;;;;;;;;;5091011;28;1443;-77
2022/11/25 03:49:17;;;;;;;;;;;;;;;;;;5089316;28;1273;-77
2022/11/25 03:51:45;;;;;;;;;;;;;;;;;;5089056;28;1182;-77
2022/11/25 03:54:12;;;;;;;;;;;;;;;;;;5090090;28;1313;-77
2022/11/25 03:56:58;;;;;;;;;;;;;;;;;;5094674;28;1256;-77
2022/11/25 03:59:25;;;;;;;;;;;;;;;;;;5093383;28;1607;-76
2022/11/25 04:01:52;;;;;;;;;;;;;;;;;;5092621;28;1969;-77
2022/11/25 04:04:18;;;;;;;;;;;;;;;;;;5093397;28;1269;-77
2022/11/25 04:06:46;;;;;;;;;;;;;;;;;;5090040;28;1198;-77
2022/11/25 04:09:12;;;;;;;;;;;;;;;;;;5089549;28;1265;-78
2022/11/25 04:14:23;;;;;;;;;;;;;;;;;;5089179;28;1050;-76
2022/11/25 04:16:50;;;;;;;;;;;;;;;;;;5090623;28;1040;-77
2022/11/25 04:19:16;;;;;;;;;;;;;;;;;;5089252;28;1378;-77
2022/11/25 04:21:42;;;;;;;;;;;;;;;;;;5089673;28;1955;-77
2022/11/25 04:24:11;;;;;;;;;;;;;;;;;;5089352;28;1542;-77
2022/11/25 04:26:37;;;;;;;;;;;;;;;;;;5089401;28;1306;-77
2022/11/25 04:29:03;;;;;;;;;;;;;;;;;;5090499;28;1274;-77
2022/11/25 04:31:30;;;;;;;;;;;;;;;;;;5089518;28;1259;-77
2022/11/25 04:33:56;;;;;;;;;;;;;;;;;;5100774;28;1295;-77
2022/11/25 04:36:23;;;;;;;;;;;;;;;;;;5098270;28;1490;-77
2022/11/25 04:38:49;;;;;;;;;;;;;;;;;;5093705;28;1399;-77
2022/11/25 04:41:18;;;;;;;;;;;;;;;;;;5088604;28;1967;-76
2022/11/25 04:43:45;;;;;;;;;;;;;;;;;;5089390;28;1519;-75
2022/11/25 04:46:13;;;;;;;;;;;;;;;;;;5089077;28;1165;-77
2022/11/25 04:48:40;;;;;;;;;;;;;;;;;;5087470;28;1402;-77
2022/11/25 04:51:06;;;;;;;;;;;;;;;;;;5089098;28;1263;-77
2022/11/25 04:53:33;;;;;;;;;;;;;;;;;;5088103;28;1392;-77
2022/11/25 04:55:59;;;;;;;;;;;;;;;;;;5088901;28;1307;-77
2022/11/25 05:01:11;;;;;;;;;;;;;;;;;;5088719;28;1965;-78
2022/11/25 05:03:41;;;;;;;;;;;;;;;;;;5088309;28;1093;-77
2022/11/25 05:06:08;;;;;;;;;;;;;;;;;;5089430;28;814;-77
2022/11/25 05:08:36;;;;;;;;;;;;;;;;;;5088237;28;1410;-77
2022/11/25 05:11:02;;;;;;;;;;;;;;;;;;5088400;28;1279;-77
2022/11/25 05:13:30;;;;;;;;;;;;;;;;;;5080145;28;1577;-77
2022/11/25 05:15:58;;;;;;;;;;;;;;;;;;5087756;28;1507;-78
2022/11/25 05:18:24;;;;;;;;;;;;;;;;;;5093303;28;1492;-77
2022/11/25 05:20:51;;;;;;;;;;;;;;;;;;5086636;28;1376;-77
2022/11/25 05:23:20;;;;;;;;;;;;;;;;;;5076664;28;1363;-77
2022/11/25 05:25:46;;;;;;;;;;;;;;;;;;5084764;28;1602;-77
2022/11/25 05:28:30;;;;;;;;;;;;;;;;;;5060272;28;1403;-76
2022/11/25 05:30:57;;;;;;;;;;;;;;;;;;5105219;28;1526;-75
2022/11/25 05:33:24;;;;;;;;;;;;;;;;;;5097649;28;1439;-77
2022/11/25 05:35:54;;;;;;;;;;;;;;;;;;5100083;28;1275;-76
2022/11/25 05:38:21;;;;;;;;;;;;;;;;;;5078295;28;1353;-77
2022/11/25 05:40:47;;;;;;;;;;;;;;;;;;5073268;28;1322;-77
2022/11/25 05:43:15;;;;;;;;;;;;;;;;;;5072611;28;1922;-77
2022/11/25 05:45:44;;;;;;;;;;;;;;;;;;5073323;28;1408;-77
2022/11/25 05:48:12;;;;;;;;;;;;;;;;;;5074567;28;1479;-77
2022/11/25 05:50:39;;;;;;;;;;;;;;;;;;5090304;28;1484;-77
2022/11/25 05:53:21;;;;;;;;;;;;;;;;;;5071920;28;1611;-77
2022/11/25 05:55:53;;;;;;;;;;;;;;;;;;5070459;28;1578;-77
2022/11/25 05:58:27;;;;;;;;;;;;;;;;;;5068090;28;1363;-78
2022/11/25 06:03:41;;;;;;;;;;;;;;;;;;4972061;28;1679;-74
2022/11/25 06:06:09;;;;;;;;;;;;;;;;;;4962057;28;1607;-73
2022/11/25 06:08:36;;;;;;;;;;;;;;;;;;4950361;29;1255;-74
2022/11/25 06:11:04;;;;;;;;;;;;;;;;;;4951083;28;1704;-74
2022/11/25 06:13:30;;;;;;;;;;;;;;;;;;4951233;28;788;-73
2022/11/25 06:15:56;;;;;;;;;;;;;;;;;;4967100;28;1311;-73
2022/11/25 06:18:23;;;;;;;;;;;;;;;;;;4977440;28;1502;-74
2022/11/25 06:20:57;;;;;;;;;;;;;;;;;;4986417;28;1139;-74
2022/11/25 06:23:23;;;;;;;;;;;;;;;;;;4956855;28;1986;-73
2022/11/25 06:25:49;;;;;;;;;;;;;;;;;;4966527;28;1341;-74
2022/11/25 06:28:16;;;;;;;;;;;;;;;;;;4950929;29;979;-74
2022/11/25 06:30:47;;;;;;;;;;;;;;;;;;4966536;28;1816;-74
2022/11/25 06:33:23;;;;;;;;;;;;;;;;;;4983027;28;1507;-74
2022/11/25 06:35:50;;;;;;;;;;;;;;;;;;5019408;28;1298;-74
2022/11/25 06:38:17;;;;;;;;;;;;;;;;;;4935790;28;1118;-76
2022/11/25 06:40:43;;;;;;;;;;;;;;;;;;4987601;28;1427;-73
2022/11/25 06:43:09;;;;;;;;;;;;;;;;;;5040131;28;2007;-74
2022/11/25 06:45:36;;;;;;;;;;;;;;;;;;5005301;28;949;-74
2022/11/25 06:48:02;;;;;;;;;;;;;;;;;;4928551;29;785;-74
2022/11/25 06:50:28;;;;;;;;;;;;;;;;;;4929139;29;1145;-75
2022/11/25 06:52:54;;;;;;;;;;;;;;;;;;4928421;29;1323;-76
2022/11/25 06:55:22;;;;;;;;;;;;;;;;;;4985893;28;1348;-74
2022/11/25 06:57:48;;;;;;;;;;;;;;;;;;4948326;28;1265;-72
2022/11/25 07:00:15;;;;;;;;;;;;;;;;;;4947349;28;1056;-76
2022/11/25 07:02:41;;;;;;;;;;;;;;;;;;4953093;28;1988;-73
2022/11/25 07:05:07;;;;;;;;;;;;;;;;;;5005666;28;1395;-75
2022/11/25 07:07:34;;;;;;;;;;;;;;;;;;5019869;28;1537;-73
2022/11/25 07:10:00;;;;;;;;;;;;;;;;;;4979409;28;1316;-76
2022/11/25 07:12:27;;;;;;;;;;;;;;;;;;4967486;28;1336;-75
2022/11/25 07:14:54;;;;;;;;;;;;;;;;;;4993832;28;1395;-76
2022/11/25 07:17:20;;;;;;;;;;;;;;;;;;4969504;28;1170;-78
2022/11/25 07:19:46;;;;;;;;;;;;;;;;;;4966116;28;974;-77
2022/11/25 07:22:12;;;;;;;;;;;;;;;;;;4977932;28;1910;-78
2022/11/25 07:24:38;;;;;;;;;;;;;;;;;;5006732;28;1329;-74
2022/11/25 07:27:05;;;;;;;;;;;;;;;;;;5006922;28;1134;-77
2022/11/25 07:29:34;;;;;;;;;;;;;;;;;;4964045;28;1156;-75
2022/11/25 07:32:00;;;;;;;;;;;;;;;;;;4959895;28;1474;-74
2022/11/25 07:34:27;;;;;;;;;;;;;;;;;;5023111;28;1315;-74
2022/11/25 07:36:53;;;;;;;;;;;;;;;;;;5021193;28;1377;-76
2022/11/25 07:39:20;;;;;;;;;;;;;;;;;;4974632;28;1373;-74
2022/11/25 07:41:50;;;;;;;;;;;;;;;;;;4966225;28;1971;-75
2022/11/25 07:44:16;;;;;;;;;;;;;;;;;;4996580;28;1204;-76
2022/11/25 07:46:50;;;;;;;;;;;;;;;;;;4946883;28;1259;-75
2022/11/25 07:49:17;;;;;;;;;;;;;;;;;;4964159;28;1080;-76
2022/11/25 07:51:44;;;;;;;;;;;;;;;;;;4945746;28;1466;-75
2022/11/25 07:54:11;;;;;;;;;;;;;;;;;;4998255;28;1318;-75
2022/11/25 07:56:38;;;;;;;;;;;;;;;;;;5026298;28;1256;-75
2022/11/25 07:59:04;;;;;;;;;;;;;;;;;;5027767;28;1439;-75
2022/11/25 08:01:31;;;;;;;;;;;;;;;;;;4945574;28;1405;-75
2022/11/25 08:03:58;;;;;;;;;;;;;;;;;;4961597;28;1918;-75
2022/11/25 08:06:25;;;;;;;;;;;;;;;;;;5005679;28;1595;-75
2022/11/25 08:08:54;;;;;;;;;;;;;;;;;;5049391;28;1431;-78
2022/11/25 08:11:21;;;;;;;;;;;;;;;;;;5059139;28;1484;-77
2022/11/25 08:13:48;;;;;;;;;;;;;;;;;;5021085;28;1440;-76
2022/11/25 08:16:15;;;;;;;;;;;;;;;;;;5048024;28;1412;-74
2022/11/25 08:18:41;;;;;;;;;;;;;;;;;;5025896;28;1466;-75
2022/11/25 08:21:09;;;;;;;;;;;;;;;;;;5015743;28;1425;-74
2022/11/25 08:23:36;;;;;;;;;;;;;;;;;;4965577;28;1973;-74
2022/11/25 08:26:03;;;;;;;;;;;;;;;;;;4982419;28;1437;-73
2022/11/25 08:28:29;;;;;;;;;;;;;;;;;;5009213;28;1162;-77
2022/11/25 08:31:00;;;;;;;;;;;;;;;;;;4967724;28;857;-78
2022/11/25 08:33:27;;;;;;;;;;;;;;;;;;4966186;28;1350;-77
2022/11/25 08:35:53;;;;;;;;;;;;;;;;;;4966480;28;1465;-76
2022/11/25 08:38:21;;;;;;;;;;;;;;;;;;5026412;28;1430;-76
2022/11/25 08:40:47;;;;;;;;;;;;;;;;;;4983842;28;1170;-76
2022/11/25 08:43:13;;;;;;;;;;;;;;;;;;4950580;28;1911;-75
2022/11/25 08:45:40;;;;;;;;;;;;;;;;;;4966700;28;1124;-75
2022/11/25 08:48:06;;;;;;;;;;;;;;;;;;5013105;28;1581;-75
2022/11/25 08:50:32;;;;;;;;;;;;;;;;;;4969385;28;1177;-75
2022/11/25 08:52:59;;;;;;;;;;;;;;;;;;4970006;28;1385;-76
2022/11/25 08:55:27;;;;;;;;;;;;;;;;;;4953443;28;1237;-74
2022/11/25 08:57:53;;;;;;;;;;;;;;;;;;5012332;28;1449;-74
2022/11/25 09:00:20;;;;;;;;;;;;;;;;;;4992811;28;1331;-75
2022/11/25 09:02:46;;;;;;;;;;;;;;;;;;5072237;28;1906;-74
2022/11/25 09:05:13;;;;;;;;;;;;;;;;;;5073720;28;733;-76
2022/11/25 09:07:39;;;;;;;;;;;;;;;;;;5074031;28;739;-76
2022/11/25 09:10:07;;;;;;;;;;;;;;;;;;5065354;28;1406;-77
2022/11/25 09:12:34;;;;;;;;;;;;;;;;;;4983423;28;1584;-76
2022/11/25 09:15:00;;;;;;;;;;;;;;;;;;5031297;28;1593;-75
2022/11/25 09:17:27;;;;;;;;;;;;;;;;;;4999559;28;1548;-74
2022/11/25 09:19:54;;;;;;;;;;;;;;;;;;4966988;28;1196;-75
2022/11/25 09:22:20;;;;;;;;;;;;;;;;;;4953639;28;1989;-76
2022/11/25 09:24:46;;;;;;;;;;;;;;;;;;5012288;28;1616;-77
2022/11/25 09:27:12;;;;;;;;;;;;;;;;;;4974907;28;1150;-75
2022/11/25 09:29:40;;;;;;;;;;;;;;;;;;4970295;28;1413;-76
2022/11/25 09:32:06;;;;;;;;;;;;;;;;;;5021626;28;1388;-75
2022/11/25 09:34:32;;;;;;;;;;;;;;;;;;4970527;28;1125;-75
2022/11/25 09:36:58;;;;;;;;;;;;;;;;;;4969996;28;948;-75
2022/11/25 09:39:28;;;;;;;;;;;;;;;;;;4967100;28;1068;-75
2022/11/25 09:47:31;;;;;;;;;;;;;;;;;;5010830;28;965;-75
2022/11/25 09:50:02;;;;;;;;;;;;;;;;;;4999115;28;1242;-76
2022/11/25 09:52:30;;;;;;;;;;;;;;;;;;4963528;28;1453;-77
2022/11/25 09:54:57;;;;;;;;;;;;;;;;;;4990088;28;832;-76
2022/11/25 09:57:25;;;;;;;;;;;;;;;;;;5015517;28;1482;-76
2022/11/25 09:59:57;;;;;;;;;;;;;;;;;;4953044;28;1170;-77
2022/11/25 10:02:24;;;;;;;;;;;;;;;;;;4974398;28;1918;-76
2022/11/25 10:04:52;;;;;;;;;;;;;;;;;;4952661;28;1262;-77
2022/11/25 10:07:19;;;;;;;;;;;;;;;;;;4992856;28;1551;-75
2022/11/25 10:09:46;;;;;;;;;;;;;;;;;;4965123;28;1106;-75
2022/11/25 10:12:13;;;;;;;;;;;;;;;;;;4964912;28;1379;-75
2022/11/25 10:14:40;;;;;;;;;;;;;;;;;;5008910;28;1637;-77
2022/11/25 10:17:11;;;;;;;;;;;;;;;;;;4983965;28;1490;-77
2022/11/25 10:19:46;;;;;;;;;;;;;;;;;;5026438;28;1137;-77
2022/11/25 10:22:23;;;;;;;;;;;;;;;;;;5043498;28;1466;-76
2022/11/25 10:24:50;;;;;;;;;;;;;;;;;;5028523;28;2021;-76
2022/11/25 10:27:18;;;;;;;;;;;;;;;;;;5015849;28;1375;-76
2022/11/25 10:29:44;;;;;;;;;;;;;;;;;;4989892;28;1146;-75
2022/11/25 10:32:18;;;;;;;;;;;;;;;;;;4965052;28;1427;-75
2022/11/25 10:34:45;;;;;;;;;;;;;;;;;;5006818;28;1208;-75
2022/11/25 10:37:12;;;;;;;;;;;;;;;;;;4966560;28;1221;-76
2022/11/25 10:39:38;;;;;;;;;;;;;;;;;;4968002;28;1071;-75
2022/11/25 10:42:06;;;;;;;;;;;;;;;;;;4968149;28;1436;-74
2022/11/25 10:44:34;;;;;;;;;;;;;;;;;;5012714;28;1911;-76
2022/11/25 10:47:04;;;;;;;;;;;;;;;;;;4953233;28;2470;-74
2022/11/25 10:49:35;;;;;;;;;;;;;;;;;;5027260;28;1553;-76
2022/11/25 10:52:01;;;;;;;;;;;;;;;;;;5010214;28;1428;-76
2022/11/25 10:54:27;;;;;;;;;;;;;;;;;;5004863;28;1149;-75
2022/11/25 10:56:55;;;;;;;;;;;;;;;;;;4965779;28;942;-76
2022/11/25 10:59:23;;;;;;;;;;;;;;;;;;4962366;28;1103;-77
2022/11/25 11:01:49;;;;;;;;;;;;;;;;;;5007119;28;1458;-77
2022/11/25 11:04:17;;;;;;;;;;;;;;;;;;4994706;28;1914;-77
2022/11/25 11:06:45;;;;;;;;;;;;;;;;;;4989440;28;1460;-77
2022/11/25 11:09:30;;;;;;;;;;;;;;;;;;5025750;28;1613;-78
2022/11/25 11:11:56;;;;;;;;;;;;;;;;;;5004784;28;1373;-76
2022/11/25 11:14:22;;;;;;;;;;;;;;;;;;4964975;28;918;-77
2022/11/25 11:16:51;;;;;;;;;;;;;;;;;;4966285;28;926;-77
2022/11/25 11:19:21;;;;;;;;;;;;;;;;;;4984798;28;1578;-76
2022/11/25 11:21:49;;;;;;;;;;;;;;;;;;5020149;28;1454;-78
2022/11/25 11:24:23;;;;;;;;;;;;;;;;;;4965934;28;1919;-78
2022/11/25 11:26:50;;;;;;;;;;;;;;;;;;4970287;28;1674;-76
2022/11/25 11:29:18;;;;;;;;;;;;;;;;;;5009396;28;1402;-77
2022/11/25 11:31:45;;;;;;;;;;;;;;;;;;4967526;28;1334;-77
2022/11/25 11:34:18;;;;;;;;;;;;;;;;;;4966836;28;1088;-77
2022/11/25 11:36:48;;;;;;;;;;;;;;;;;;4966624;28;1116;-77
2022/11/25 11:39:25;;;;;;;;;;;;;;;;;;4967929;28;779;-77
2022/11/25 11:41:52;;;;;;;;;;;;;;;;;;4950410;28;1424;-77
2022/11/25 11:44:19;;;;;;;;;;;;;;;;;;4965172;28;1910;-77
2022/11/25 11:47:00;;;;;;;;;;;;;;;;;;4964871;28;1103;-77
2022/11/25 11:49:31;;;;;;;;;;;;;;;;;;4962812;28;1060;-77
2022/11/25 11:51:59;;;;;;;;;;;;;;;;;;4946904;28;1417;-77
2022/11/25 11:54:28;;;;;;;;;;;;;;;;;;4963538;28;755;-78
2022/11/25 11:56:56;;;;;;;;;;;;;;;;;;4949529;28;1475;-77
2022/11/25 11:59:29;;;;;;;;;;;;;;;;;;4968891;28;1441;-78
2022/11/25 12:01:59;;;;;;;;;;;;;;;;;;5010415;28;1483;-77
2022/11/25 12:04:26;;;;;;;;;;;;;;;;;;5044697;22;3504;-74
2022/11/25 12:06:56;;;;;;;;;;;;;;;;;;5022698;28;1103;-81
2022/11/25 12:09:22;;;;;;;;;;;;;;;;;;5001212;28;1443;-80
2022/11/25 12:11:50;;;;;;;;;;;;;;;;;;5028859;28;1205;-81
2022/11/25 12:14:18;;;;;;;;;;;;;;;;;;5032826;28;1315;-79
2022/11/25 12:16:45;;;;;;;;;;;;;;;;;;5031763;28;1039;-80
2022/11/25 12:19:13;;;;;;;;;;;;;;;;;;5029135;28;1411;-77
2022/11/25 12:21:41;;;;;;;;;;;;;;;;;;5019773;28;1395;-79
2022/11/25 12:24:10;;;;;;;;;;;;;;;;;;5018743;28;1969;-79
2022/11/25 12:26:38;;;;;;;;;;;;;;;;;;5032353;28;1470;-79
2022/11/25 12:29:07;;;;;;;;;;;;;;;;;;5019513;28;1431;-80
2022/11/25 12:31:36;;;;;;;;;;;;;;;;;;5017719;28;1470;-78
2022/11/25 12:34:04;;;;;;;;;;;;;;;;;;5031572;28;1325;-78
2022/11/25 12:36:31;;;;;;;;;;;;;;;;;;5005885;28;917;-80
2022/11/25 12:39:00;;;;;;;;;;;;;;;;;;4996429;28;1455;-79
2022/11/25 12:41:27;;;;;;;;;;;;;;;;;;5026408;28;1193;-80
2022/11/25 12:43:54;;;;;;;;;;;;;;;;;;5024329;28;2020;-81
2022/11/25 12:46:24;;;;;;;;;;;;;;;;;;5016188;28;1641;-81
2022/11/25 12:48:50;;;;;;;;;;;;;;;;;;5029689;28;1449;-81
2022/11/25 12:51:19;;;;;;;;;;;;;;;;;;5013839;28;1248;-80
2022/11/25 12:53:47;;;;;;;;;;;;;;;;;;5011891;28;1071;-81
2022/11/25 12:56:14;;;;;;;;;;;;;;;;;;5010981;28;1302;-80
2022/11/25 12:58:41;;;;;;;;;;;;;;;;;;5010963;28;973;-80
2022/11/25 13:01:29;;;;;;;;;;;;;;;;;;4996765;28;1626;-80
2022/11/25 13:04:10;;;;;;;;;;;;;;;;;;5013279;28;1969;-80
2022/11/25 13:06:41;;;;;;;;;;;;;;;;;;5014166;28;1229;-80
2022/11/25 13:09:09;;;;;;;;;;;;;;;;;;5010501;28;595;-81
2022/11/25 13:12:00;;;;;;;;;;;;;;;;;;4999546;28;1400;-80
2022/11/25 13:14:27;;;;;;;;;;;;;;;;;;4990308;28;1407;-77
2022/11/25 13:16:55;;;;;;;;;;;;;;;;;;5006991;28;1489;-80
2022/11/25 13:19:22;;;;;;;;;;;;;;;;;;4995369;28;1286;-80
2022/11/25 13:21:58;;;;;;;;;;;;;;;;;;4996248;28;1114;-79
2022/11/25 13:24:28;;;;;;;;;;;;;;;;;;4993148;28;1879;-80
2022/11/25 13:26:54;;;;;;;;;;;;;;;;;;4990962;28;1483;-80
2022/11/25 13:29:39;;;;;;;;;;;;;;;;;;5000121;28;1570;-80
2022/11/25 13:32:23;;;;;;;;;;;;;;;;;;4973916;28;1474;-81
2022/11/25 13:34:50;;;;;;;;;;;;;;;;;;4979073;28;1354;-81
2022/11/25 13:37:31;;;;;;;;;;;;;;;;;;4992766;28;942;-80
2022/11/25 13:40:11;;;;;;;;;;;;;;;;;;4991613;28;1630;-79
2022/11/25 13:42:42;;;;;;;;;;;;;;;;;;4992303;28;1776;-80
2022/11/25 13:45:21;;;;;;;;;;;;;;;;;;4986407;28;1923;-80
2022/11/25 13:47:48;;;;;;;;;;;;;;;;;;5013680;28;1071;-80
2022/11/25 13:50:18;;;;;;;;;;;;;;;;;;4995900;28;1537;-80
2022/11/25 13:52:47;;;;;;;;;;;;;;;;;;5001807;28;1145;-79
2022/11/25 13:55:30;;;;;;;;;;;;;;;;;;5012812;28;1353;-79
2022/11/25 13:58:00;;;;;;;;;;;;;;;;;;5007302;28;906;-80
2022/11/25 14:00:43;;;;;;;;;;;;;;;;;;4997916;28;1420;-82
2022/11/25 14:03:24;;;;;;;;;;;;;;;;;;5001763;28;1383;-80
2022/11/25 14:05:58;;;;;;;;;;;;;;;;;;5006765;28;1919;-81
2022/11/25 14:08:26;;;;;;;;;;;;;;;;;;4991950;28;1044;-78
2022/11/25 14:10:55;;;;;;;;;;;;;;;;;;5015860;28;1391;-81
2022/11/25 14:13:27;;;;;;;;;;;;;;;;;;5008374;28;1453;-78
2022/11/25 14:15:57;;;;;;;;;;;;;;;;;;4999143;28;1454;-83
2022/11/25 14:18:26;;;;;;;;;;;;;;;;;;4990840;28;906;-81
2022/11/25 14:20:54;;;;;;;;;;;;;;;;;;5009001;28;1186;-81
2022/11/25 14:23:36;;;;;;;;;;;;;;;;;;4990726;28;1289;-80
2022/11/25 14:26:03;;;;;;;;;;;;;;;;;;5018095;28;1914;-81
2022/11/25 14:28:30;;;;;;;;;;;;;;;;;;5017532;28;1412;-80
2022/11/25 14:30:59;;;;;;;;;;;;;;;;;;5026742;28;1229;-80
2022/11/25 14:33:26;;;;;;;;;;;;;;;;;;5010963;28;1201;-82
2022/11/25 14:35:53;;;;;;;;;;;;;;;;;;5004885;28;1430;-80
2022/11/25 14:38:20;;;;;;;;;;;;;;;;;;5021035;28;1437;-80
2022/11/25 14:40:49;;;;;;;;;;;;;;;;;;5015136;28;1410;-81
2022/11/25 14:43:16;;;;;;;;;;;;;;;;;;5019186;28;1363;-80
2022/11/25 14:45:42;;;;;;;;;;;;;;;;;;5011642;28;2351;-80
2022/11/25 14:48:12;;;;;;;;;;;;;;;;;;4991789;28;1123;-81
2022/11/25 14:50:38;;;;;;;;;;;;;;;;;;5015449;28;1356;-80
2022/11/25 14:53:05;;;;;;;;;;;;;;;;;;5025456;28;1288;-81
2022/11/25 14:55:32;;;;;;;;;;;;;;;;;;5031784;28;1399;-81
2022/11/25 14:57:59;;;;;;;;;;;;;;;;;;5031892;28;787;-81
2022/11/25 15:00:26;;;;;;;;;;;;;;;;;;5007315;28;1396;-81
2022/11/25 15:02:53;;;;;;;;;;;;;;;;;;5004848;28;1133;-81
2022/11/25 15:05:20;;;;;;;;;;;;;;;;;;5058334;28;1961;-80
2022/11/25 15:07:53;;;;;;;;;;;;;;;;;;5099188;28;1405;-80
2022/11/25 15:10:30;;;;;;;;;;;;;;;;;;5101357;28;1356;-79
2022/11/25 15:12:56;;;;;;;;;;;;;;;;;;5092749;28;1217;-79
2022/11/25 15:15:23;;;;;;;;;;;;;;;;;;5094416;28;1414;-80
2022/11/25 15:17:53;;;;;;;;;;;;;;;;;;5096664;28;1898;-81
2022/11/25 15:20:19;;;;;;;;;;;;;;;;;;5093446;28;1190;-80
2022/11/25 15:22:45;;;;;;;;;;;;;;;;;;5098982;28;1325;-80
2022/11/25 15:25:13;;;;;;;;;;;;;;;;;;5107342;28;1979;-81
2022/11/25 15:27:43;;;;;;;;;;;;;;;;;;5109535;28;1046;-81
2022/11/25 15:30:18;;;;;;;;;;;;;;;;;;5108092;28;1449;-81
2022/11/25 15:32:46;;;;;;;;;;;;;;;;;;5098663;28;1285;-80
2022/11/25 15:35:14;;;;;;;;;;;;;;;;;;5094510;28;1402;-79
2022/11/25 15:37:40;;;;;;;;;;;;;;;;;;5098408;28;1071;-82
2022/11/25 15:40:26;;;;;;;;;;;;;;;;;;5096711;28;1556;-78
2022/11/25 15:42:52;;;;;;;;;;;;;;;;;;5106923;28;1260;-79
2022/11/25 15:45:20;;;;;;;;;;;;;;;;;;5098185;28;1910;-80
2022/11/25 15:47:47;;;;;;;;;;;;;;;;;;5110804;28;1303;-81
2022/11/25 15:50:16;;;;;;;;;;;;;;;;;;5100820;28;1369;-80
2022/11/25 15:52:44;;;;;;;;;;;;;;;;;;5104286;28;1133;-82
2022/11/25 15:55:17;;;;;;;;;;;;;;;;;;5105870;28;1474;-80
2022/11/25 15:57:44;;;;;;;;;;;;;;;;;;5106924;28;1214;-81
2022/11/25 16:00:15;;;;;;;;;;;;;;;;;;5111541;28;1163;-81
2022/11/25 16:02:50;;;;;;;;;;;;;;;;;;5110059;28;1198;-81
2022/11/25 16:05:31;;;;;;;;;;;;;;;;;;5071819;28;1906;-81
2022/11/25 16:07:59;;;;;;;;;;;;;;;;;;5004529;28;1439;-82
2022/11/25 16:10:26;;;;;;;;;;;;;;;;;;5005420;28;1283;-78
2022/11/25 16:13:07;;;;;;;;;;;;;;;;;;5025399;28;1400;-82
2022/11/25 16:15:41;;;;;;;;;;;;;;;;;;5002887;28;1542;-80
2022/11/25 16:18:09;;;;;;;;;;;;;;;;;;4995299;28;1477;-80
2022/11/25 16:20:35;;;;;;;;;;;;;;;;;;4997940;28;1368;-77
2022/11/25 16:23:06;;;;;;;;;;;;;;;;;;5020594;28;1502;-78
2022/11/25 16:25:32;;;;;;;;;;;;;;;;;;5018878;28;1956;-79
2022/11/25 16:27:59;;;;;;;;;;;;;;;;;;5013192;28;1072;-80
2022/11/25 16:30:27;;;;;;;;;;;;;;;;;;5010960;28;1072;-78
2022/11/25 16:32:53;;;;;;;;;;;;;;;;;;4990344;28;1221;-78
2022/11/25 16:35:21;;;;;;;;;;;;;;;;;;5009203;28;1446;-79
2022/11/25 16:37:47;;;;;;;;;;;;;;;;;;5018672;28;1786;-80
2022/11/25 16:40:14;;;;;;;;;;;;;;;;;;5009537;28;1629;-79
2022/11/25 16:42:41;;;;;;;;;;;;;;;;;;5027950;28;1224;-81
2022/11/25 16:45:12;;;;;;;;;;;;;;;;;;5017307;28;1903;-79
2022/11/25 16:47:38;;;;;;;;;;;;;;;;;;5021162;28;1451;-80
2022/11/25 16:50:11;;;;;;;;;;;;;;;;;;5009861;28;1329;-80
2022/11/25 16:52:38;;;;;;;;;;;;;;;;;;5028536;28;1411;-79
2022/11/25 16:55:05;;;;;;;;;;;;;;;;;;4995974;28;1423;-79
2022/11/25 16:57:31;;;;;;;;;;;;;;;;;;5006467;28;1342;-78
2022/11/25 17:00:00;;;;;;;;;;;;;;;;;;5021916;28;1064;-78
2022/11/25 17:02:27;;;;;;;;;;;;;;;;;;5015894;28;1052;-78
2022/11/25 17:04:53;;;;;;;;;;;;;;;;;;5026815;28;1891;-77
2022/11/25 17:07:21;;;;;;;;;;;;;;;;;;5031782;28;1452;-78
2022/11/25 17:09:49;;;;;;;;;;;;;;;;;;5042285;28;1169;-77
2022/11/25 17:12:15;;;;;;;;;;;;;;;;;;5038714;28;1107;-79
2022/11/25 17:14:42;;;;;;;;;;;;;;;;;;5019171;28;1324;-79
2022/11/25 17:17:09;;;;;;;;;;;;;;;;;;5038531;28;754;-79
2022/11/25 17:19:35;;;;;;;;;;;;;;;;;;5019567;28;1231;-81
2022/11/25 17:22:01;;;;;;;;;;;;;;;;;;5026957;28;1560;-82
2022/11/25 17:24:28;;;;;;;;;;;;;;;;;;4960740;28;1466;-75
2022/11/25 17:26:56;;;;;;;;;;;;;;;;;;4946611;28;1938;-77
2022/11/25 17:29:24;;;;;;;;;;;;;;;;;;4947071;28;2044;-76